Airfield :
LOGIN :

Register | Disclaimer

   EN    FR    IT 

 










Legend :    VFR   Marginal VFR   IFR   Intensive IFR   Very Intensive IFR
Visi :
Ceiling :
>= 8 km
>= 3000ft
5 to 8 km
1000 to 3000 ft
1500m to 5 km
500 to 1000 ft
800 to 1500m
200 to 500 ft
< 800m
< 200 ft
Symbols :   Thunderstorms  Fog  Heavy snow  Heavy precipitations  Wind > 20 kt
SIGMETs :     Misc.  Thunderstorms  Icing  Turbulence  Mountain Waves  Volcanic Ashes






- Airport Elevation : 49 ft
- IATA code : GLZ


EHGR - Gilze-Rijen Airbase

CURRENT METAR :
  • 142055Z AUTO 20009KT 170V240 9999 OVC250 06/01 Q0997 BLU

EXPIRED METARs :
  • 142025Z AUTO 21008KT 180V240 9999 NCD 05/01 Q0998 BLU
  • 141955Z AUTO 21009KT 190V250 9999 SCT200 06/01 Q0997 BLU
  • 141925Z AUTO 22007KT 190V260 9999 NCD 06/01 Q0997 BLU
  • 141855Z AUTO 23008KT 210V270 9999 NCD 06/01 Q0997 BLU
  • 141825Z AUTO 23008KT 210V270 9999 NCD 06/00 Q0996 BLU

Expired Forecast.



MET'MAP, your aeronautical weather chart ! - Copyright ORBIFLY December 2007 - Disclaimer

ORBIFLY MET'MAP TEAM :

Programming & Development : Alexandra Zaïnal
Concept & original design : Baudouin d'Aumeries
Assistance for programming : Marc-Olivier Méhu
Technical & hardware support : Manuel Goepfert

Contact : metmap@orbifly.com




SOURCES & CREDITS :

   NOAA